KFSM/FSM METAR and TAF weather

Enter ICAO airport designator
Station Type Date Time Source
KFSM METAR 2020/07/15 04:53 UTC NOAA

KFSM 150453Z AUTO 07005KT 10SM CLR 27/22 A2988 RMK AO2 SLP110 T02670217


Station Type Date Time Source
KFSM Decoded METAR 2020/07/15 04:53 UTC NOAA

FORT SMITH REGIONAL AIRPORT, AR, United States (KFSM) 35-20N 94-22W 140M
Jul 15, 2020 - 12:53 AM EDT / 2020.07.15 0453 UTC
Wind: from the ENE (070 degrees) at 6 MPH (5 KT):0
Visibility: 10 mile(s):0
Sky conditions: clear
Temperature: 80.1 F (26.7 C)
Dew Point: 71.1 F (21.7 C)
Relative Humidity: 74%
Pressure (altimeter): 29.88 in. Hg (1011 hPa)
ob: KFSM 150453Z AUTO 07005KT 10SM CLR 27/22 A2988 RMK AO2 SLP110 T02670217
cycle: 5

Station Type Date Time Source
KFSM TAF 2020/07/15 06:22 UTC NOAA

TAF KFSM 150520Z 1506/1606 08005KT P6SM SCT250 WS020/21030KT
FM151600 14009KT P6SM SCT250
FM151900 21010G17KT P6SM FEW060 SCT250
FM160000 VRB06KT P6SM BKN250

Example: see airport list